Time;durP1;ratioP1;P1;durP2;ratioP2;P2;SDS_P1;SDS_P2;PMS_P1;PMS_P2;Temp;Humidity;BMP_temperature;BMP_pressure;BME280_temperature;BME280_humidity;BME280_pressure;Samples;Min_cycle;Max_cycle;Signal;HPM_P1;HPM_P2
2023/10/27 00:04:49;;;;;;;3.77;1.30;;;;;;;19.19;63.33;94612.91;10335808;28;20121;-28
2023/10/27 00:09:49;;;;;;;3.40;1.50;;;;;;;19.20;63.37;94604.41;10351501;28;20289;-28
2023/10/27 00:14:50;;;;;;;2.25;1.20;;;;;;;19.18;63.34;94596.81;10328456;28;20044;-28
2023/10/27 00:19:50;;;;;;;3.93;1.30;;;;;;;19.16;63.44;94603.66;10327917;28;20054;-29
2023/10/27 00:24:51;;;;;;;3.77;1.43;;;;;;;19.17;63.50;94600.22;10335880;28;20034;-28
2023/10/27 00:29:52;;;;;;;3.50;1.25;;;;;;;19.15;63.30;94591.84;10335736;28;20038;-29
2023/10/27 00:34:52;;;;;;;2.40;0.83;;;;;;;19.15;63.36;94591.00;10335752;28;20536;-28
2023/10/27 00:39:52;;;;;;;2.77;1.03;;;;;;;19.17;63.36;94589.28;10333515;28;20038;-29
2023/10/27 00:44:53;;;;;;;1.57;1.07;;;;;;;19.14;63.29;94589.38;10339382;28;20042;-28
2023/10/27 00:49:54;;;;;;;2.87;1.00;;;;;;;19.15;63.27;94573.25;10333533;28;20042;-28
2023/10/27 00:54:55;;;;;;;6.95;1.95;;;;;;;19.15;63.36;94578.31;10335570;28;20074;-29
2023/10/27 00:59:56;;;;;;;6.85;1.52;;;;;;;19.17;63.24;94574.06;10328104;28;20085;-28
2023/10/27 01:04:56;;;;;;;3.80;1.50;;;;;;;19.16;63.26;94578.28;10334722;28;20057;-29
2023/10/27 01:09:56;;;;;;;2.53;1.00;;;;;;;19.14;63.37;94564.84;10330771;28;20413;-28
2023/10/27 01:14:57;;;;;;;3.17;1.40;;;;;;;19.11;63.49;94559.88;10325409;28;20401;-28
2023/10/27 01:20:00;;;;;;;3.47;1.33;;;;;;;19.15;63.30;94563.13;10333066;28;20293;-29
2023/10/27 01:25:00;;;;;;;3.38;1.25;;;;;;;19.15;63.37;94555.50;10339393;28;20070;-28
2023/10/27 01:30:01;;;;;;;2.50;1.17;;;;;;;19.13;63.30;94542.06;10339324;28;20122;-28
2023/10/27 01:35:02;;;;;;;3.07;2.07;;;;;;;19.13;63.13;94524.31;10332014;28;20143;-28
2023/10/27 01:40:03;;;;;;;2.95;1.73;;;;;;;19.09;63.09;94526.13;10335919;28;20280;-28
2023/10/27 01:45:05;;;;;;;3.10;0.82;;;;;;;19.14;63.15;94529.34;10344477;28;20045;-28
2023/10/27 01:50:06;;;;;;;4.00;1.20;;;;;;;19.14;63.23;94523.41;10345836;28;20034;-28
2023/10/27 01:55:07;;;;;;;3.47;1.17;;;;;;;19.10;63.28;94511.75;10346503;28;20496;-28
2023/10/27 02:00:08;;;;;;;1.73;0.90;;;;;;;19.10;63.35;94511.75;10342831;28;20092;-28
2023/10/27 02:05:13;;;;;;;2.03;0.82;;;;;;;19.13;63.14;94506.56;10348600;28;20555;-29
2023/10/27 02:10:13;;;;;;;2.50;1.17;;;;;;;19.14;62.92;94510.75;10343219;28;20092;-29
2023/10/27 02:15:13;;;;;;;1.40;0.90;;;;;;;19.10;63.16;94517.63;10348282;28;20058;-28
2023/10/27 02:20:14;;;;;;;3.63;1.50;;;;;;;19.14;63.07;94508.19;10347250;28;20664;-28
2023/10/27 02:25:15;;;;;;;2.92;0.95;;;;;;;19.15;63.06;94492.09;10339717;28;20033;-28
2023/10/27 02:30:16;;;;;;;3.25;1.08;;;;;;;19.16;62.83;94492.06;10353832;28;20026;-28
2023/10/27 02:35:16;;;;;;;2.42;0.90;;;;;;;19.16;62.93;94491.25;10341727;28;20043;-28
2023/10/27 02:40:16;;;;;;;2.40;1.20;;;;;;;19.15;63.36;94490.41;10342583;28;20424;-29
2023/10/27 02:45:17;;;;;;;2.40;1.60;;;;;;;19.15;62.98;94480.25;10341937;28;20308;-28
2023/10/27 02:50:17;;;;;;;4.18;1.10;;;;;;;19.14;62.97;94477.75;10339910;28;20059;-28
2023/10/27 02:55:19;;;;;;;2.42;0.88;;;;;;;19.13;63.03;94474.44;10356366;28;20065;-28
2023/10/27 03:00:19;;;;;;;4.23;0.70;;;;;;;19.13;62.89;94465.97;10352102;28;20038;-28
2023/10/27 03:05:20;;;;;;;2.03;0.77;;;;;;;19.13;62.99;94473.59;10347869;28;20641;-29
2023/10/27 03:10:22;;;;;;;4.13;0.90;;;;;;;19.12;62.95;94474.47;10345155;28;20038;-28
2023/10/27 03:15:23;;;;;;;4.40;1.00;;;;;;;19.10;63.42;94473.72;10342032;28;20130;-27
2023/10/27 03:20:23;;;;;;;2.50;0.97;;;;;;;19.12;62.99;94469.41;10340807;28;20046;-28
2023/10/27 03:25:23;;;;;;;2.77;1.30;;;;;;;19.12;62.87;94471.94;10346322;28;20046;-28
2023/10/27 03:30:24;;;;;;;2.30;0.90;;;;;;;19.11;63.00;94460.97;10335551;28;20289;-28
2023/10/27 03:35:25;;;;;;;2.13;0.70;;;;;;;19.10;62.75;94466.91;10329099;28;20037;-28
2023/10/27 03:40:26;;;;;;;2.35;0.80;;;;;;;19.10;62.96;94461.03;10336896;28;20030;-28
2023/10/27 03:45:26;;;;;;;2.75;0.80;;;;;;;19.14;62.75;94458.31;10339830;28;20045;-29
2023/10/27 03:50:26;;;;;;;3.85;1.10;;;;;;;19.18;62.71;94479.31;10344805;28;20076;-28
2023/10/27 03:55:27;;;;;;;2.10;0.90;;;;;;;19.22;62.46;94475.81;10350960;28;20112;-28
2023/10/27 04:00:29;;;;;;;4.70;1.07;;;;;;;19.24;62.19;94474.06;10336502;28;20030;-28
2023/10/27 04:05:29;;;;;;;4.30;0.82;;;;;;;19.25;61.99;94483.31;10329629;28;20305;-28
2023/10/27 04:10:37;;;;;;;4.80;0.90;;;;;;;19.27;62.16;94476.47;10346904;28;20037;-28
2023/10/27 04:15:37;;;;;;;6.32;0.80;;;;;;;19.29;62.13;94487.38;10334627;28;20105;-29
2023/10/27 04:20:38;;;;;;;3.13;1.00;;;;;;;19.29;62.02;94492.44;10346667;28;20176;-29
2023/10/27 04:25:39;;;;;;;4.63;0.80;;;;;;;19.30;62.06;94510.16;10349802;28;20065;-29
2023/10/27 04:30:40;;;;;;;3.45;0.90;;;;;;;19.31;61.90;94513.50;10343690;28;20033;-29
2023/10/27 04:35:40;;;;;;;5.33;0.70;;;;;;;19.32;62.03;94520.22;10344060;28;20524;-28
2023/10/27 04:40:41;;;;;;;3.40;0.80;;;;;;;19.31;62.12;94532.09;10341286;28;20030;-31
2023/10/27 04:45:41;;;;;;;2.92;0.80;;;;;;;19.29;62.11;94549.09;10338266;28;20077;-29
2023/10/27 04:50:41;;;;;;;4.23;0.70;;;;;;;19.29;62.06;94569.38;10328193;28;20057;-30
2023/10/27 04:55:42;;;;;;;3.47;1.02;;;;;;;19.26;61.93;94574.56;10341956;28;20026;-28
2023/10/27 05:00:43;;;;;;;4.87;1.30;;;;;;;19.27;61.60;94585.53;10344875;28;20034;-28
2023/10/27 05:05:43;;;;;;;5.53;2.40;;;;;;;19.23;61.64;94597.50;10335286;28;20319;-29
2023/10/27 05:10:44;;;;;;;5.70;1.60;;;;;;;19.29;61.93;94611.69;10328064;28;20031;-28
2023/10/27 05:15:52;;;;;;;5.17;1.17;;;;;;;19.32;62.06;94636.91;10327961;28;20121;-31
2023/10/27 05:20:53;;;;;;;4.85;1.02;;;;;;;19.30;61.85;94646.31;10328524;28;20301;-28
2023/10/27 05:25:53;;;;;;;6.67;1.40;;;;;;;19.21;62.22;94651.72;10327166;28;20396;-27
2023/10/27 05:30:54;;;;;;;9.53;1.10;;;;;;;19.22;60.25;94644.06;10328972;28;20481;-28
2023/10/27 05:35:54;;;;;;;3.72;1.30;;;;;;;19.22;61.10;94649.13;10330227;28;20393;-26
2023/10/27 05:40:54;;;;;;;3.90;1.47;;;;;;;19.24;60.66;94652.44;10325769;28;20037;-29
2023/10/27 05:45:55;;;;;;;8.80;1.40;;;;;;;19.19;61.16;94645.88;10334679;28;20577;-28
2023/10/27 05:50:55;;;;;;;16.05;3.15;;;;;;;19.19;60.91;94656.81;10325360;28;20300;-29
2023/10/27 05:55:56;;;;;;;10.57;2.87;;;;;;;19.19;60.82;94673.78;10338065;28;20027;-28
2023/10/27 06:00:57;;;;;;;12.13;3.03;;;;;;;19.18;61.79;94682.22;10328147;28;20034;-28
2023/10/27 06:05:57;;;;;;;17.77;2.40;;;;;;;19.14;61.26;94691.66;10325746;28;20068;-28
2023/10/27 06:10:57;;;;;;;7.23;2.10;;;;;;;19.14;61.58;94694.19;10333705;28;20093;-29
2023/10/27 06:15:58;;;;;;;10.07;2.03;;;;;;;19.13;61.73;94714.53;10342731;28;20511;-28
2023/10/27 06:20:58;;;;;;;11.43;2.03;;;;;;;19.11;61.75;94708.69;10334174;28;20088;-28
2023/10/27 06:26:00;;;;;;;5.00;1.50;;;;;;;19.06;62.03;94708.00;10325627;28;20031;-28
2023/10/27 06:31:01;;;;;;;7.15;1.30;;;;;;;19.07;61.90;94715.56;10343571;28;20026;-28
2023/10/27 06:36:03;;;;;;;8.30;2.53;;;;;;;19.11;61.82;94718.81;10348529;28;20041;-29
2023/10/27 06:41:03;;;;;;;6.43;1.48;;;;;;;19.08;61.88;94726.56;10339826;28;20057;-29
2023/10/27 06:46:04;;;;;;;4.67;1.23;;;;;;;19.10;62.01;94740.00;10342806;28;20077;-28
2023/10/27 06:51:04;;;;;;;3.13;1.07;;;;;;;19.10;61.80;94750.16;10343691;28;20033;-28
2023/10/27 06:56:05;;;;;;;4.73;1.33;;;;;;;19.10;62.13;94771.25;10348006;28;20304;-28
2023/10/27 07:01:09;;;;;;;5.15;1.05;;;;;;;19.15;61.79;94787.16;10331039;28;20301;-27
2023/10/27 07:06:10;;;;;;;6.13;2.13;;;;;;;19.13;61.89;94805.84;10331973;28;20481;-30
2023/10/27 07:11:11;;;;;;;3.67;1.42;;;;;;;19.14;61.44;94807.50;10329027;28;20500;-29
2023/10/27 07:16:11;;;;;;;2.75;0.90;;;;;;;19.16;61.58;94815.91;10338646;28;20158;-29
2023/10/27 07:21:12;;;;;;;5.97;2.17;;;;;;;19.16;61.71;94823.50;10334728;28;20030;-28
2023/10/27 07:26:17;;;;;;;6.65;1.35;;;;;;;19.12;61.60;94824.47;10330458;28;20030;-29
2023/10/27 07:31:17;;;;;;;2.55;1.02;;;;;;;19.14;61.63;94832.84;10335210;28;20105;-29
2023/10/27 07:36:17;;;;;;;3.50;0.93;;;;;;;19.13;61.65;94842.19;10335045;28;20045;-29
2023/10/27 07:41:18;;;;;;;2.67;1.00;;;;;;;19.12;61.47;94839.69;10328877;28;20046;-29
2023/10/27 07:46:18;;;;;;;4.17;1.00;;;;;;;19.13;61.53;94847.25;10332205;28;20076;-29
2023/10/27 07:51:18;;;;;;;3.90;0.87;;;;;;;19.13;61.42;94846.41;10343111;28;20289;-28
2023/10/27 07:56:19;;;;;;;1.00;0.57;;;;;;;19.13;61.53;94847.25;10337176;28;20038;-29
2023/10/27 08:01:19;;;;;;;2.25;0.90;;;;;;;19.12;61.48;94825.31;10334182;28;20042;-28
2023/10/27 08:06:20;;;;;;;1.13;0.70;;;;;;;19.14;61.39;94843.84;10329505;28;20043;-29
2023/10/27 08:11:21;;;;;;;5.07;0.90;;;;;;;19.12;61.80;94824.47;10343464;28;20028;-29
2023/10/27 08:16:22;;;;;;;1.45;0.60;;;;;;;19.10;61.54;94844.00;10351063;28;20034;-29
2023/10/27 08:21:22;;;;;;;3.20;1.83;;;;;;;19.12;61.95;94844.75;10328270;28;20571;-29
2023/10/27 08:26:23;;;;;;;2.23;0.87;;;;;;;19.17;61.56;94837.84;10328410;28;20042;-29
2023/10/27 08:31:23;;;;;;;4.37;0.70;;;;;;;19.17;61.58;94858.13;10345285;28;20281;-29
2023/10/27 08:36:24;;;;;;;2.55;1.30;;;;;;;19.18;61.56;94844.56;10341698;28;20671;-29
2023/10/27 08:41:28;;;;;;;2.93;1.10;;;;;;;19.17;61.75;94845.44;10334436;28;20041;-29
2023/10/27 08:46:29;;;;;;;3.60;0.95;;;;;;;19.16;61.93;94851.41;10341907;28;20405;-29
2023/10/27 08:51:31;;;;;;;3.30;1.05;;;;;;;19.15;62.02;94859.88;10333942;28;20041;-28
2023/10/27 08:56:32;;;;;;;6.68;1.92;;;;;;;19.13;63.20;94865.00;10331910;28;20404;-29
2023/10/27 09:01:33;;;;;;;7.43;3.13;;;;;;;19.07;61.89;94880.41;10326890;28;20034;-29
2023/10/27 09:06:34;;;;;;;11.93;2.60;;;;;;;19.03;63.06;94883.09;10339780;28;20034;-28
2023/10/27 09:11:42;;;;;;;5.15;1.73;;;;;;;19.01;63.16;94889.94;10341154;28;20069;-28
2023/10/27 09:16:43;;;;;;;5.93;1.63;;;;;;;19.01;63.21;94897.53;10337268;28;20492;-28
2023/10/27 09:21:45;;;;;;;5.43;1.15;;;;;;;19.01;63.11;94897.53;10342563;28;20044;-29
2023/10/27 09:26:46;;;;;;;6.40;1.27;;;;;;;18.98;63.12;94907.75;10332150;28;21974;-29
2023/10/27 09:31:46;;;;;;;5.00;1.27;;;;;;;18.98;63.08;94902.69;10334924;28;20041;-28
2023/10/27 09:36:52;;;;;;;5.72;1.67;;;;;;;19.05;62.36;94901.63;10330370;28;20436;-28
2023/10/27 09:42:07;;;;;;;7.87;1.57;;;;;;;19.05;62.42;94904.16;10327110;28;20030;-28
2023/10/27 09:47:22;;;;;;;6.10;1.10;;;;;;;19.07;62.78;94912.53;10325838;28;20070;-29
2023/10/27 09:52:28;;;;;;;9.00;1.58;;;;;;;19.11;63.29;94919.19;10334455;28;20034;-29
2023/10/27 09:57:29;;;;;;;6.53;1.17;;;;;;;19.12;64.44;94931.84;10328060;28;20034;-28
2023/10/27 10:02:30;;;;;;;3.30;1.10;;;;;;;19.10;62.93;94920.88;10344173;28;20034;-29
2023/10/27 10:07:31;;;;;;;8.02;1.30;;;;;;;19.13;63.30;94930.13;10332791;28;20108;-29
2023/10/27 10:13:02;;;;;;;5.82;1.17;;;;;;;19.14;62.99;94934.31;10346708;28;20497;-28
2023/10/27 10:18:21;;;;;;;1.63;1.00;;;;;;;19.11;62.69;94945.41;10332763;28;20030;-29
2023/10/27 10:23:24;;;;;;;2.08;0.82;;;;;;;19.16;62.70;94951.16;10335377;28;20034;-29
2023/10/27 10:28:27;;;;;;;5.57;1.23;;;;;;;19.15;62.37;94941.03;10349125;28;20042;-28
2023/10/27 10:33:28;;;;;;;2.05;0.90;;;;;;;19.18;62.22;94948.56;10333007;28;20112;-29
2023/10/27 10:38:36;;;;;;;4.38;1.00;;;;;;;19.17;61.71;94959.59;10341003;28;20487;-28
2023/10/27 10:43:36;;;;;;;5.45;0.70;;;;;;;19.14;63.47;94955.44;10346380;28;20077;-29
2023/10/27 10:48:41;;;;;;;4.63;1.20;;;;;;;19.13;63.50;94958.88;10348738;28;20081;-28
2023/10/27 10:53:43;;;;;;;1.55;0.80;;;;;;;19.09;63.88;94951.41;10345056;28;20440;-28
2023/10/27 10:58:43;;;;;;;6.75;1.80;;;;;;;19.09;63.42;94941.25;10332225;28;20682;-28
2023/10/27 11:03:51;;;;;;;3.60;1.00;;;;;;;19.17;63.08;94944.38;10338781;28;20043;-29
2023/10/27 11:08:52;;;;;;;5.53;0.88;;;;;;;19.20;62.82;94949.38;10347332;28;20030;-28
2023/10/27 11:13:57;;;;;;;4.90;1.13;;;;;;;19.21;62.47;94939.19;10332018;28;20037;-29
2023/10/27 11:18:59;;;;;;;3.78;0.85;;;;;;;19.23;62.45;94928.97;10335899;28;20037;-29
2023/10/27 11:24:06;;;;;;;1.67;0.80;;;;;;;19.25;62.10;94919.63;10349198;28;20515;-28
2023/10/27 11:29:07;;;;;;;4.57;0.90;;;;;;;19.25;62.20;94917.91;10349964;28;20038;-28
2023/10/27 11:34:11;;;;;;;6.07;1.00;;;;;;;19.31;62.19;94932.09;10348719;28;20559;-30
2023/10/27 11:39:21;;;;;;;5.82;1.08;;;;;;;19.30;62.60;94936.38;10328904;28;20096;-29
2023/10/27 11:44:22;;;;;;;5.07;1.13;;;;;;;19.29;62.82;94922.03;10336938;28;20121;-29
2023/10/27 11:49:26;;;;;;;3.42;0.80;;;;;;;19.30;62.75;94921.16;10350251;28;20072;-28
2023/10/27 11:54:27;;;;;;;4.18;1.00;;;;;;;19.28;62.40;94912.75;10343516;28;20390;-28
2023/10/27 11:59:29;;;;;;;5.95;1.33;;;;;;;19.30;62.93;94925.38;10331677;28;20046;-28
2023/10/27 12:04:30;;;;;;;4.18;1.80;;;;;;;19.26;62.62;94921.28;10333329;28;20046;-28
2023/10/27 12:09:30;;;;;;;4.67;1.40;;;;;;;19.29;62.66;94939.78;10335498;28;20558;-29
2023/10/27 12:14:30;;;;;;;4.20;1.13;;;;;;;19.30;62.59;94948.22;10331815;28;20304;-29
2023/10/27 12:19:31;;;;;;;8.33;1.10;;;;;;;19.28;62.87;94962.66;10335289;28;20188;-29
2023/10/27 12:24:33;;;;;;;7.90;1.02;;;;;;;19.28;63.32;94952.50;10349605;28;20045;-29
2023/10/27 12:29:34;;;;;;;2.15;0.80;;;;;;;19.27;63.27;94953.41;10328360;28;20511;-29
2023/10/27 12:34:35;;;;;;;8.35;2.05;;;;;;;19.29;63.39;94956.72;10336018;28;20038;-30
2023/10/27 12:39:35;;;;;;;11.20;2.00;;;;;;;19.28;62.97;94965.19;10346625;28;20037;-29
2023/10/27 12:44:36;;;;;;;9.20;3.03;;;;;;;19.23;63.58;94954.34;10349173;28;20129;-28
2023/10/27 12:49:38;;;;;;;17.23;2.47;;;;;;;19.28;63.32;94973.66;10337058;28;20038;-28
2023/10/27 12:54:39;;;;;;;5.97;1.73;;;;;;;19.29;63.25;94979.53;10330520;28;20030;-29
2023/10/27 12:59:39;;;;;;;5.20;1.67;;;;;;;19.28;62.91;94978.72;10341476;28;20467;-30
2023/10/27 13:04:39;;;;;;;7.63;1.47;;;;;;;19.28;62.52;94963.50;10340335;28;20037;-28
2023/10/27 13:09:40;;;;;;;6.90;1.37;;;;;;;19.31;62.94;94960.88;10345768;28;20284;-29
2023/10/27 13:14:41;;;;;;;5.38;1.40;;;;;;;19.28;63.21;94949.97;10332296;28;20038;-29
2023/10/27 13:19:42;;;;;;;5.47;1.38;;;;;;;19.31;62.95;94952.41;10337080;28;20485;-29
2023/10/27 13:24:43;;;;;;;7.43;1.77;;;;;;;19.29;63.15;94949.09;10330335;28;20513;-30
2023/10/27 13:29:43;;;;;;;11.38;1.98;;;;;;;19.35;63.77;94959.06;10328564;28;20049;-28
2023/10/27 13:34:45;;;;;;;7.47;2.37;;;;;;;19.33;63.14;94955.75;10328818;28;20112;-29
2023/10/27 13:39:46;;;;;;;8.65;1.80;;;;;;;19.33;63.56;94951.47;10340762;28;20042;-31
2023/10/27 13:44:48;;;;;;;9.80;2.47;;;;;;;19.33;63.60;94970.97;10345611;28;20038;-29
2023/10/27 13:49:55;;;;;;;8.20;3.13;;;;;;;19.34;63.22;94977.69;10333768;28;20022;-27
2023/10/27 13:54:56;;;;;;;7.93;2.22;;;;;;;19.38;62.65;94984.31;10343195;28;20027;-29
2023/10/27 13:59:57;;;;;;;4.93;1.90;;;;;;;19.34;62.33;94972.63;10347121;28;20458;-29
2023/10/27 14:04:57;;;;;;;2.73;1.73;;;;;;;19.34;62.26;94965.00;10345106;28;20057;-29
2023/10/27 14:09:57;;;;;;;7.30;2.10;;;;;;;19.31;61.96;94972.69;10334791;28;20043;-29
2023/10/27 14:14:58;;;;;;;3.43;1.60;;;;;;;19.25;61.23;94978.00;10336323;28;20157;-28
2023/10/27 14:19:59;;;;;;;4.20;1.63;;;;;;;19.27;61.77;94977.03;10340876;28;20038;-29
2023/10/27 14:25:00;;;;;;;5.80;2.70;;;;;;;19.27;61.38;94976.22;10357275;28;20488;-30
2023/10/27 14:30:01;;;;;;;11.77;2.30;;;;;;;19.26;61.89;94979.66;10355935;28;20098;-29
2023/10/27 14:35:03;;;;;;;3.85;2.00;;;;;;;19.27;61.79;94976.22;10356878;28;20475;-30
2023/10/27 14:40:06;;;;;;;4.95;1.85;;;;;;;19.26;61.95;94982.19;10344545;28;20026;-28
2023/10/27 14:45:11;;;;;;;4.65;1.70;;;;;;;19.27;61.98;94982.13;10340289;28;20042;-28
2023/10/27 14:50:12;;;;;;;2.97;1.55;;;;;;;19.27;61.83;94991.44;10332353;28;20058;-28
2023/10/27 14:55:14;;;;;;;3.38;1.60;;;;;;;19.26;62.23;95007.56;10331556;28;20034;-28
2023/10/27 15:00:15;;;;;;;4.57;1.67;;;;;;;19.30;62.74;95019.25;10334551;28;20058;-29
2023/10/27 15:05:15;;;;;;;6.18;1.65;;;;;;;19.25;62.53;95003.34;10331378;28;20076;-28
2023/10/27 15:10:15;;;;;;;7.53;1.63;;;;;;;19.30;62.87;95012.50;10351324;28;20031;-28
2023/10/27 15:15:16;;;;;;;6.37;2.00;;;;;;;19.33;62.92;95009.84;10336169;28;20802;-30
2023/10/27 15:20:16;;;;;;;5.17;1.67;;;;;;;19.37;62.96;95006.34;10339913;28;20312;-30
2023/10/27 15:25:17;;;;;;;3.13;1.30;;;;;;;19.42;62.93;94998.59;10330445;28;20096;-29
2023/10/27 15:30:17;;;;;;;5.00;1.50;;;;;;;19.46;62.85;94993.38;10330559;28;20037;-29
2023/10/27 15:35:18;;;;;;;6.83;1.57;;;;;;;19.52;62.70;95003.31;10339815;28;20034;-28
2023/10/27 15:40:19;;;;;;;2.33;1.23;;;;;;;19.58;62.47;94992.16;10345067;28;20304;-29
2023/10/27 15:45:19;;;;;;;3.58;1.30;;;;;;;19.62;62.32;94993.72;10340836;28;20169;-29
2023/10/27 15:50:21;;;;;;;4.23;1.50;;;;;;;19.59;62.18;94993.81;10335769;28;20593;-28
2023/10/27 15:55:22;;;;;;;5.35;1.65;;;;;;;19.55;62.18;94990.56;10345132;28;20772;-28
2023/10/27 16:00:22;;;;;;;13.77;2.50;;;;;;;19.48;61.95;94990.78;10329674;28;20041;-29
2023/10/27 16:05:23;;;;;;;4.13;1.70;;;;;;;19.53;62.01;94994.00;10328096;28;20093;-30
2023/10/27 16:10:23;;;;;;;5.30;1.50;;;;;;;19.50;61.92;94989.03;10327667;28;20504;-28
2023/10/27 16:15:23;;;;;;;6.60;1.53;;;;;;;19.49;61.88;94980.59;10339959;28;20042;-29
2023/10/27 16:20:24;;;;;;;2.27;1.30;;;;;;;19.49;61.98;94977.22;10331251;28;20305;-29
2023/10/27 16:25:24;;;;;;;3.30;1.03;;;;;;;19.44;61.87;94968.91;10331980;28;20025;-28
2023/10/27 16:30:25;;;;;;;2.13;0.93;;;;;;;19.44;61.93;94990.03;10343849;28;20026;-29
2023/10/27 16:35:25;;;;;;;2.13;1.30;;;;;;;19.40;61.98;94991.03;10331924;28;20033;-29
2023/10/27 16:40:30;;;;;;;3.15;1.38;;;;;;;19.44;61.61;94987.50;10338314;28;20030;-29
2023/10/27 16:45:30;;;;;;;2.08;0.90;;;;;;;19.45;61.58;95001.03;10339138;28;20065;-29
2023/10/27 16:50:31;;;;;;;2.13;1.17;;;;;;;19.45;61.47;94995.94;10342473;28;20026;-29
2023/10/27 16:55:32;;;;;;;4.30;1.00;;;;;;;19.45;61.53;95001.88;10333476;28;20288;-29
2023/10/27 17:00:32;;;;;;;4.95;2.38;;;;;;;19.37;62.05;95008.06;10331847;28;20393;-29
2023/10/27 17:05:33;;;;;;;8.73;2.77;;;;;;;19.45;61.46;94996.81;10329123;28;20034;-30
2023/10/27 17:10:33;;;;;;;4.82;1.83;;;;;;;19.41;61.66;94999.47;10326442;28;20412;-29
2023/10/27 17:15:34;;;;;;;6.85;2.25;;;;;;;19.40;61.63;95000.31;10329566;28;20121;-29
2023/10/27 17:20:35;;;;;;;5.72;2.00;;;;;;;19.36;61.52;94986.09;10337770;28;20413;-29
2023/10/27 17:25:35;;;;;;;5.70;1.90;;;;;;;19.40;61.57;94993.56;10326469;28;20038;-28
2023/10/27 17:30:42;;;;;;;3.83;2.07;;;;;;;19.43;61.75;95002.78;10337296;28;20031;-28
2023/10/27 17:35:43;;;;;;;5.20;1.90;;;;;;;19.38;61.68;94999.56;10326399;28;20034;-29
2023/10/27 17:40:44;;;;;;;9.00;2.45;;;;;;;19.36;61.99;95006.41;10328496;28;20600;-29
2023/10/27 17:45:44;;;;;;;9.70;2.33;;;;;;;19.36;61.76;95002.16;10342232;28;20038;-30
2023/10/27 17:50:44;;;;;;;5.50;2.40;;;;;;;19.36;61.98;94996.25;10342204;28;20042;-28
2023/10/27 17:55:48;;;;;;;6.37;2.10;;;;;;;19.40;61.71;95002.88;10344740;28;20049;-28
2023/10/27 18:00:49;;;;;;;8.48;2.33;;;;;;;19.41;61.75;94994.41;10332814;28;20296;-28
2023/10/27 18:05:53;;;;;;;10.07;2.30;;;;;;;19.31;62.04;95000.63;10348393;28;20035;-29
2023/10/27 18:10:55;;;;;;;5.72;2.60;;;;;;;19.34;61.70;95000.53;10347376;28;20038;-29
2023/10/27 18:15:56;;;;;;;10.32;2.47;;;;;;;19.33;61.87;94996.34;10351883;28;20030;-28
2023/10/27 18:20:56;;;;;;;5.45;2.17;;;;;;;19.33;61.59;94993.81;10345679;28;20026;-28
2023/10/27 18:25:57;;;;;;;4.88;2.47;;;;;;;19.36;61.43;94988.63;10334090;28;20481;-28
2023/10/27 18:31:01;;;;;;;5.35;1.80;;;;;;;19.31;61.18;94982.84;10352882;28;20161;-29
2023/10/27 18:36:12;;;;;;;8.25;2.15;;;;;;;19.29;60.98;94977.00;10351319;28;20034;-29
2023/10/27 18:41:14;;;;;;;10.70;2.10;;;;;;;19.27;60.94;94976.22;10343091;28;20070;-29
2023/10/27 18:46:14;;;;;;;6.72;2.05;;;;;;;19.28;60.88;94981.25;10335362;28;20041;-29
2023/10/27 18:51:15;;;;;;;6.70;2.03;;;;;;;19.29;60.84;94988.00;10333254;28;20378;-29
2023/10/27 18:56:15;;;;;;;5.63;2.40;;;;;;;19.34;61.05;94987.84;10335688;28;20288;-28
2023/10/27 19:01:16;;;;;;;6.53;2.07;;;;;;;19.35;60.91;94992.84;10328445;28;20030;-28
2023/10/27 19:06:18;;;;;;;8.55;2.30;;;;;;;19.37;61.09;94996.19;10339577;28;20293;-29
2023/10/27 19:11:20;;;;;;;6.13;2.08;;;;;;;19.39;60.89;94988.53;10326768;28;20030;-29
2023/10/27 19:16:21;;;;;;;7.07;2.13;;;;;;;19.38;61.06;94984.31;10329665;28;20041;-28
2023/10/27 19:21:21;;;;;;;7.13;2.35;;;;;;;19.38;61.24;94984.31;10335182;28;20045;-28
2023/10/27 19:26:23;;;;;;;5.90;2.17;;;;;;;19.39;60.98;94985.97;10339020;28;20049;-29
2023/10/27 19:31:26;;;;;;;4.22;1.77;;;;;;;19.41;61.05;94996.94;10335444;28;20669;-29
2023/10/27 19:36:28;;;;;;;5.65;1.90;;;;;;;19.41;61.00;95014.72;10349545;28;20034;-28
2023/10/27 19:41:28;;;;;;;6.68;1.85;;;;;;;19.38;61.15;95030.84;10344034;28;20042;-30
2023/10/27 19:46:29;;;;;;;6.13;1.70;;;;;;;19.41;60.89;95028.22;10330248;28;20527;-28
2023/10/27 19:51:29;;;;;;;3.17;1.53;;;;;;;19.42;60.93;95031.59;10330020;28;20497;-29
2023/10/27 19:56:30;;;;;;;3.83;1.73;;;;;;;19.43;61.15;95078.94;10326283;28;20841;-29
2023/10/27 20:01:30;;;;;;;4.03;1.88;;;;;;;19.42;61.08;95122.94;10329771;28;20304;-30
2023/10/27 20:06:30;;;;;;;5.73;2.40;;;;;;;19.42;61.01;95133.09;10325653;28;20034;-29
2023/10/27 20:11:31;;;;;;;5.57;2.37;;;;;;;19.39;61.31;95148.41;10325827;28;20038;-29
2023/10/27 20:16:37;;;;;;;4.18;1.55;;;;;;;19.39;61.29;95133.16;10326041;28;20042;-29
2023/10/27 20:21:38;;;;;;;3.28;1.33;;;;;;;19.39;61.22;95143.31;10327609;28;20048;-28
2023/10/27 20:26:39;;;;;;;3.47;1.33;;;;;;;19.40;61.24;95155.13;10334838;28;20785;-28
2023/10/27 20:31:39;;;;;;;5.03;1.77;;;;;;;19.40;61.31;95173.75;10328808;28;21134;-28
2023/10/27 20:36:40;;;;;;;5.07;1.63;;;;;;;19.41;61.41;95177.94;10334832;28;20057;-28
2023/10/27 20:41:40;;;;;;;8.87;1.33;;;;;;;19.42;61.23;95163.56;10344668;28;20042;-29
2023/10/27 20:46:41;;;;;;;3.53;1.50;;;;;;;19.45;61.61;95173.59;10331677;28;20105;-29
2023/10/27 20:51:43;;;;;;;5.53;1.90;;;;;;;19.42;61.31;95171.16;10349513;28;20033;-28
2023/10/27 20:56:44;;;;;;;3.47;1.73;;;;;;;19.41;61.58;95187.28;10337929;28;20032;-28
2023/10/27 21:01:44;;;;;;;3.43;1.20;;;;;;;19.41;61.81;95190.63;10333237;28;20038;-29
2023/10/27 21:06:44;;;;;;;5.30;1.47;;;;;;;19.38;61.92;95183.09;10335063;28;20030;-29
2023/10/27 21:11:45;;;;;;;5.00;2.17;;;;;;;19.38;61.59;95187.34;10334947;28;20089;-29
2023/10/27 21:16:45;;;;;;;7.03;1.70;;;;;;;19.36;61.86;95196.72;10342748;28;20291;-29
2023/10/27 21:21:46;;;;;;;4.45;1.30;;;;;;;19.37;61.89;95211.06;10326478;28;20031;-30
2023/10/27 21:26:47;;;;;;;11.13;1.92;;;;;;;19.34;61.99;95209.44;10326888;28;20073;-30
2023/10/27 21:31:49;;;;;;;5.60;1.40;;;;;;;19.32;61.99;95217.94;10326423;28;20473;-30
2023/10/27 21:36:50;;;;;;;6.20;1.40;;;;;;;19.32;61.92;95215.41;10332595;28;20041;-29
2023/10/27 21:41:51;;;;;;;6.43;1.67;;;;;;;19.34;62.08;95226.38;10329907;28;20041;-28
2023/10/27 21:46:51;;;;;;;5.00;1.40;;;;;;;19.29;62.16;95223.13;10338605;28;20042;-28
2023/10/27 21:51:51;;;;;;;5.53;1.50;;;;;;;19.33;62.13;95222.19;10332233;28;20099;-29
2023/10/27 21:56:52;;;;;;;3.08;1.45;;;;;;;19.31;62.10;95227.28;10334880;28;20116;-29
2023/10/27 22:01:54;;;;;;;4.13;1.00;;;;;;;19.30;62.26;95235.78;10333537;28;20042;-29
2023/10/27 22:06:55;;;;;;;4.22;1.60;;;;;;;19.30;62.35;95232.38;10334256;28;20033;-28
2023/10/27 22:11:55;;;;;;;5.50;1.45;;;;;;;19.28;62.44;95256.97;10334158;28;20023;-29
2023/10/27 22:16:56;;;;;;;6.18;1.55;;;;;;;19.27;62.32;95255.31;10341200;28;20489;-29
2023/10/27 22:21:57;;;;;;;4.57;1.73;;;;;;;19.26;62.31;95258.72;10337257;28;20040;-29
2023/10/27 22:26:57;;;;;;;4.70;1.23;;;;;;;19.28;62.17;95256.97;10346216;28;20289;-29
2023/10/27 22:31:58;;;;;;;4.03;1.27;;;;;;;19.26;62.37;95249.41;10340915;28;20033;-28
2023/10/27 22:36:58;;;;;;;5.73;1.30;;;;;;;19.26;62.41;95258.72;10340641;28;20026;-29
2023/10/27 22:41:58;;;;;;;5.73;1.30;;;;;;;19.24;62.36;95256.22;10337209;28;20104;-30
2023/10/27 22:46:59;;;;;;;3.20;1.63;;;;;;;19.25;62.49;95282.44;10336350;28;20125;-29
2023/10/27 22:51:59;;;;;;;5.33;1.30;;;;;;;19.23;62.11;95282.47;10331709;28;20022;-29
2023/10/27 22:56:59;;;;;;;3.27;1.57;;;;;;;19.24;62.60;95280.78;10332332;28;20300;-28
2023/10/27 23:02:00;;;;;;;2.85;0.95;;;;;;;19.25;62.38;95277.38;10331665;28;20034;-29
2023/10/27 23:07:00;;;;;;;3.58;0.90;;;;;;;19.23;62.64;95267.25;10331248;28;20034;-28
2023/10/27 23:12:04;;;;;;;6.87;1.23;;;;;;;19.20;62.63;95251.28;10334260;28;20087;-29
2023/10/27 23:17:04;;;;;;;3.20;1.23;;;;;;;19.20;62.80;95258.88;10334682;28;20053;-29
2023/10/27 23:22:04;;;;;;;5.37;1.10;;;;;;;19.21;62.60;95276.59;10331767;28;20034;-31